createdAt,value
2018-12-20T00:00:55.055Z,101811.95
2018-12-20T00:03:45.857Z,101809.98
2018-12-20T00:06:36.722Z,101810.53
2018-12-20T00:09:26.294Z,101808.39
2018-12-20T00:12:16.206Z,101814.95
2018-12-20T00:15:06.107Z,101814.56
2018-12-20T00:17:56.154Z,101821.84
2018-12-20T00:20:46.100Z,101823.53
2018-12-20T00:23:37.035Z,101828.50
2018-12-20T00:26:27.779Z,101827.42
2018-12-20T00:29:17.746Z,101833.85
2018-12-20T00:32:07.697Z,101831.19
2018-12-20T00:34:57.500Z,101835.34
2018-12-20T00:37:47.904Z,101836.42
2018-12-20T00:40:38.452Z,101838.88
2018-12-20T00:43:28.233Z,101836.58
2018-12-20T00:46:18.142Z,101838.84
2018-12-20T00:49:08.122Z,101840.05
2018-12-20T00:51:58.342Z,101840.05
2018-12-20T00:54:48.148Z,101842.72
2018-12-20T00:57:39.051Z,101838.33
2018-12-20T01:00:28.964Z,101842.97
2018-12-20T01:03:20.210Z,101834.17
2018-12-20T01:06:10.913Z,101835.59
2018-12-20T01:09:01.794Z,101836.28
2018-12-20T01:11:52.508Z,101831.70
2018-12-20T01:14:45.455Z,101834.82
2018-12-20T01:17:39.166Z,101828.30
2018-12-20T01:20:29.384Z,101827.13
2018-12-20T01:23:20.296Z,101829.67
2018-12-20T01:26:11.531Z,101830.58
2018-12-20T01:29:02.368Z,101832.36
2018-12-20T01:31:52.393Z,101832.48
2018-12-20T01:34:42.153Z,101829.82
2018-12-20T01:37:32.311Z,101821.55
2018-12-20T01:40:22.833Z,101827.31
2018-12-20T01:43:13.646Z,101825.34
2018-12-20T01:46:03.465Z,101839.70
2018-12-20T01:48:54.508Z,101835.28
2018-12-20T01:51:45.259Z,101832.00
2018-12-20T01:54:35.082Z,101825.65
2018-12-20T01:57:24.830Z,101827.49
2018-12-20T02:00:14.975Z,101829.58
2018-12-20T02:03:05.820Z,101817.73
2018-12-20T02:05:56.969Z,101816.05
2018-12-20T02:08:47.630Z,101807.67
2018-12-20T02:11:38.400Z,101819.28
2018-12-20T02:14:28.973Z,101815.59
2018-12-20T02:17:19.692Z,101808.64
2018-12-20T02:20:10.767Z,101811.59
2018-12-20T02:23:00.932Z,101808.19
2018-12-20T02:25:52.641Z,101806.34
2018-12-20T02:28:43.533Z,101805.08
2018-12-20T02:31:34.314Z,101806.03
2018-12-20T02:34:24.529Z,101802.75
2018-12-20T02:37:15.204Z,101811.03
2018-12-20T02:40:05.059Z,101807.67
2018-12-20T02:42:54.764Z,101818.30
2018-12-20T02:45:44.929Z,101815.77
2018-12-20T02:48:35.844Z,101816.84
2018-12-20T02:51:26.597Z,101819.81
2018-12-20T02:54:17.167Z,101821.90
2018-12-20T02:57:08.243Z,101818.42
2018-12-20T02:59:58.134Z,101823.98
2018-12-20T03:02:49.271Z,101822.11
2018-12-20T03:05:39.914Z,101824.13
2018-12-20T03:08:29.966Z,101824.62
2018-12-20T03:11:20.568Z,101833.55
2018-12-20T03:14:10.406Z,101831.02
2018-12-20T03:17:00.351Z,101832.02
2018-12-20T03:19:50.181Z,101838.93
2018-12-20T03:22:40.831Z,101827.42
2018-12-20T03:25:31.579Z,101832.73
2018-12-20T03:28:21.541Z,101839.57
2018-12-20T03:31:12.775Z,101838.16
2018-12-20T03:34:03.266Z,101851.84
2018-12-20T03:36:53.296Z,101848.48
2018-12-20T03:39:44.137Z,101850.44
2018-12-20T03:42:35.299Z,101854.61
2018-12-20T03:45:29.153Z,101852.92
2018-12-20T03:48:18.317Z,101851.83
2018-12-20T03:51:08.942Z,101859.11
2018-12-20T03:54:00.028Z,101850.44
2018-12-20T03:56:50.829Z,101858.80
2018-12-20T03:59:42.425Z,101861.83
2018-12-20T04:02:32.665Z,101861.83
2018-12-20T04:05:22.762Z,101859.11
2018-12-20T04:08:12.638Z,101865.88
2018-12-20T04:11:02.465Z,101866.58
2018-12-20T04:13:52.307Z,101868.48
2018-12-20T04:16:42.637Z,101875.25
2018-12-20T04:19:33.038Z,101866.91
2018-12-20T04:22:22.932Z,101867.73
2018-12-20T04:25:12.803Z,101866.77
2018-12-20T04:28:03.821Z,101861.72
2018-12-20T04:30:54.653Z,101866.41
2018-12-20T04:33:45.466Z,101869.81
2018-12-20T04:36:35.363Z,101872.53
2018-12-20T04:39:26.301Z,101875.13
2018-12-20T04:42:17.394Z,101870.55
2018-12-20T04:45:08.150Z,101869.16
2018-12-20T04:47:57.938Z,101873.58
2018-12-20T04:50:49.152Z,101877.84
2018-12-20T04:53:39.864Z,101880.35
2018-12-20T04:56:30.851Z,101875.94
2018-12-20T04:59:21.688Z,101881.80
2018-12-20T05:02:12.505Z,101879.92
2018-12-20T05:05:03.863Z,101884.73
2018-12-20T05:07:54.752Z,101881.80
2018-12-20T05:10:45.299Z,101886.45
2018-12-20T05:13:36.137Z,101885.30
2018-12-20T05:16:26.356Z,101887.97
2018-12-20T05:19:17.311Z,101885.94
2018-12-20T05:22:08.334Z,101892.59
2018-12-20T05:24:59.193Z,101897.09
2018-12-20T05:27:49.502Z,101895.61
2018-12-20T05:30:40.342Z,101900.05
2018-12-20T05:33:31.118Z,101910.88
2018-12-20T05:36:21.811Z,101909.16
2018-12-20T05:39:12.385Z,101914.80
2018-12-20T05:42:03.605Z,101913.30
2018-12-20T05:44:54.567Z,101917.61
2018-12-20T05:47:45.487Z,101915.00
2018-12-20T05:50:36.307Z,101920.88
2018-12-20T05:53:27.556Z,101924.63
2018-12-20T05:56:18.121Z,101926.64
2018-12-20T05:59:08.716Z,101931.33
2018-12-20T06:01:58.653Z,101928.79
2018-12-20T06:04:48.648Z,101933.56
2018-12-20T06:07:38.478Z,101938.16
2018-12-20T06:10:29.573Z,101936.28
2018-12-20T06:13:19.577Z,101939.05
2018-12-20T06:16:13.075Z,101947.97
2018-12-20T06:19:02.250Z,101951.84
2018-12-20T06:21:53.355Z,101952.94
2018-12-20T06:24:44.227Z,101951.52
2018-12-20T06:27:34.066Z,101950.28
2018-12-20T06:30:24.765Z,101950.06
2018-12-20T06:33:14.717Z,101959.77
2018-12-20T06:36:05.286Z,101959.72
2018-12-20T06:38:55.491Z,101953.83
2018-12-20T06:41:46.133Z,101962.13
2018-12-20T06:44:36.918Z,101966.42
2018-12-20T06:47:26.808Z,101966.11
2018-12-20T06:50:17.013Z,101975.30
2018-12-20T06:53:07.825Z,101973.46
2018-12-20T06:55:57.815Z,101977.12
2018-12-20T06:58:48.501Z,101976.50
2018-12-20T07:01:39.268Z,101978.79
2018-12-20T07:04:29.963Z,101980.24
2018-12-20T07:07:19.958Z,101985.63
2018-12-20T07:10:10.363Z,101979.46
2018-12-20T07:13:00.266Z,101987.14
2018-12-20T07:15:50.081Z,101984.16
2018-12-20T07:18:40.176Z,101987.26
2018-12-20T07:21:30.825Z,101991.77
2018-12-20T07:24:20.934Z,101988.98
2018-12-20T07:27:10.900Z,102000.39
2018-12-20T07:30:01.044Z,101999.03
2018-12-20T07:32:51.657Z,101996.25
2018-12-20T07:35:41.628Z,102001.52
2018-12-20T07:38:31.300Z,101996.13
2018-12-20T07:41:22.115Z,102000.37
2018-12-20T07:44:12.021Z,102004.23
2018-12-20T07:47:02.115Z,102004.45
2018-12-20T07:49:53.095Z,102000.37
2018-12-20T07:52:43.092Z,102000.30
2018-12-20T07:55:32.979Z,101997.58
2018-12-20T07:58:22.938Z,102001.52
2018-12-20T08:01:12.677Z,102002.09
2018-12-20T08:04:03.340Z,102007.34
2018-12-20T08:06:53.951Z,102015.22
2018-12-20T08:09:44.831Z,102008.44
2018-12-20T08:12:34.732Z,102011.02
2018-12-20T08:15:24.810Z,102011.59
2018-12-20T08:18:15.561Z,102013.13
2018-12-20T08:21:05.884Z,102010.95
2018-12-20T08:23:55.954Z,102015.85
2018-12-20T08:26:46.986Z,102008.23
2018-12-20T08:29:37.515Z,102013.61
2018-12-20T08:32:28.203Z,102007.23
2018-12-20T08:35:18.161Z,102012.22
2018-12-20T08:38:08.202Z,102011.70
2018-12-20T08:40:58.126Z,102003.59
2018-12-20T08:43:48.188Z,102016.48
2018-12-20T08:46:41.127Z,102008.17
2018-12-20T08:49:30.929Z,102013.55
2018-12-20T08:52:21.064Z,102014.64
2018-12-20T08:55:11.092Z,102015.58
2018-12-20T08:58:01.739Z,102012.67
2018-12-20T09:00:52.512Z,102003.98
2018-12-20T09:03:43.176Z,102005.32
2018-12-20T09:06:33.164Z,101997.63
2018-12-20T09:09:23.956Z,101996.54
2018-12-20T09:12:13.930Z,101991.66
2018-12-20T09:15:03.775Z,101994.05
2018-12-20T09:17:53.585Z,101996.82
2018-12-20T09:20:43.374Z,101996.82
2018-12-20T09:23:33.314Z,101999.52
2018-12-20T09:26:23.115Z,101999.70
2018-12-20T09:29:12.994Z,101992.24
2018-12-20T09:32:03.033Z,101990.30
2018-12-20T09:34:53.848Z,101982.44
2018-12-20T09:37:43.799Z,101983.12
2018-12-20T09:40:33.687Z,101976.46
2018-12-20T09:43:25.025Z,101978.61
2018-12-20T09:46:15.502Z,101976.23
2018-12-20T09:49:05.302Z,101982.08
2018-12-20T09:51:55.148Z,101979.70
2018-12-20T09:54:45.435Z,101968.63
2018-12-20T09:57:35.673Z,101961.58
2018-12-20T10:00:26.366Z,101958.17
2018-12-20T10:03:16.213Z,101949.82
2018-12-20T10:06:05.918Z,101945.30
2018-12-20T10:08:55.815Z,101941.73
2018-12-20T10:11:45.659Z,101937.67
2018-12-20T10:14:35.759Z,101932.66
2018-12-20T10:17:25.604Z,101934.35
2018-12-20T10:20:17.101Z,101930.29
2018-12-20T10:23:07.854Z,101936.73
2018-12-20T10:25:58.324Z,101929.61
2018-12-20T10:28:47.994Z,101921.03
2018-12-20T10:31:37.999Z,101926.27
2018-12-20T10:34:27.759Z,101924.67
2018-12-20T10:37:17.643Z,101918.01
2018-12-20T10:40:07.588Z,101916.22
2018-12-20T10:42:58.484Z,101910.15
2018-12-20T10:45:49.084Z,101906.16
2018-12-20T10:48:39.211Z,101906.70
2018-12-20T10:51:29.903Z,101906.70
2018-12-20T10:54:19.978Z,101904.98
2018-12-20T10:57:09.950Z,101903.80
2018-12-20T10:59:59.777Z,101888.62
2018-12-20T11:02:54.459Z,101903.97
2018-12-20T11:05:49.476Z,101903.71
2018-12-20T11:08:43.568Z,101903.48
2018-12-20T11:11:47.813Z,101897.48
2018-12-20T11:14:38.111Z,101903.63
2018-12-20T11:17:37.183Z,101895.27
2018-12-20T11:20:22.151Z,101886.61
2018-12-20T11:23:13.109Z,101879.56
2018-12-20T11:26:03.057Z,101873.56
2018-12-20T11:28:53.923Z,101870.80
2018-12-20T11:31:43.887Z,101875.22
2018-12-20T11:34:34.007Z,101872.09
2018-12-20T11:37:23.765Z,101867.75
2018-12-20T11:40:13.595Z,101874.86
2018-12-20T11:43:03.342Z,101862.84
2018-12-20T11:45:53.391Z,101861.80
2018-12-20T11:48:44.101Z,101856.35
2018-12-20T11:51:34.271Z,101855.31
2018-12-20T11:54:24.039Z,101854.14
2018-12-20T11:57:15.120Z,101852.55
2018-12-20T12:00:05.612Z,101851.02
2018-12-20T12:02:55.962Z,101853.66
2018-12-20T12:05:46.004Z,101848.62
2018-12-20T12:08:36.017Z,101846.87
2018-12-20T12:11:25.993Z,101846.74
2018-12-20T12:14:16.177Z,101851.03
2018-12-20T12:17:06.357Z,101850.31
2018-12-20T12:19:56.387Z,101847.58
2018-12-20T12:22:46.256Z,101848.45
2018-12-20T12:25:36.378Z,101839.23
2018-12-20T12:28:26.170Z,101843.58
2018-12-20T12:31:17.039Z,101841.10
2018-12-20T12:34:06.855Z,101844.51
2018-12-20T12:36:57.740Z,101839.11
2018-12-20T12:39:48.551Z,101839.02
2018-12-20T12:42:38.386Z,101840.67
2018-12-20T12:45:28.346Z,101846.73
2018-12-20T12:48:18.521Z,101848.48
2018-12-20T12:51:09.023Z,101841.34
2018-12-20T12:53:58.974Z,101845.27
2018-12-20T12:56:48.903Z,101840.61
2018-12-20T12:59:39.222Z,101839.24
2018-12-20T13:02:29.730Z,101835.04
2018-12-20T13:05:19.566Z,101836.38
2018-12-20T13:08:09.489Z,101839.77
2018-12-20T13:10:59.283Z,101834.66
2018-12-20T13:13:49.170Z,101835.98
2018-12-20T13:16:39.107Z,101839.84
2018-12-20T13:19:28.902Z,101835.71
2018-12-20T13:22:18.782Z,101837.33
2018-12-20T13:25:09.266Z,101842.52
2018-12-20T13:27:59.716Z,101845.11
2018-12-20T13:30:49.577Z,101844.16
2018-12-20T13:33:39.716Z,101844.05
2018-12-20T13:36:30.423Z,101846.80
2018-12-20T13:39:20.499Z,101856.58
2018-12-20T13:42:11.021Z,101860.97
2018-12-20T13:45:01.047Z,101854.30
2018-12-20T13:47:51.078Z,101856.51
2018-12-20T13:50:42.332Z,101853.84
2018-12-20T13:53:32.874Z,101858.23
2018-12-20T13:56:23.589Z,101853.70
2018-12-20T13:59:13.683Z,101860.37
2018-12-20T14:02:03.597Z,101866.12
2018-12-20T14:04:54.550Z,101866.50
2018-12-20T14:07:44.433Z,101864.44
2018-12-20T14:10:34.202Z,101869.62
2018-12-20T14:13:24.576Z,101870.22
2018-12-20T14:16:15.025Z,101869.84
2018-12-20T14:19:05.469Z,101860.13
2018-12-20T14:21:58.549Z,101862.72
2018-12-20T14:24:52.514Z,101863.56
2018-12-20T14:27:42.654Z,101867.91
2018-12-20T14:30:32.671Z,101867.03
2018-12-20T14:33:22.485Z,101873.98
2018-12-20T14:36:13.204Z,101870.89
2018-12-20T14:39:04.758Z,101869.84
2018-12-20T14:41:55.334Z,101872.22
2018-12-20T14:44:46.080Z,101874.64
2018-12-20T14:47:36.144Z,101866.75
2018-12-20T14:50:25.867Z,101865.69
2018-12-20T14:53:16.749Z,101864.01
2018-12-20T14:56:06.790Z,101855.70
2018-12-20T14:58:57.597Z,101866.74
2018-12-20T15:01:47.446Z,101868.07
2018-12-20T15:04:37.363Z,101869.41
2018-12-20T15:07:27.267Z,101872.62
2018-12-20T15:10:17.191Z,101877.99
2018-12-20T15:13:07.928Z,101876.34
2018-12-20T15:15:57.950Z,101875.40
2018-12-20T15:18:48.118Z,101875.40
2018-12-20T15:21:38.856Z,101873.81
2018-12-20T15:24:30.527Z,101875.01
2018-12-20T15:27:20.614Z,101885.91
2018-12-20T15:30:11.553Z,101878.63
2018-12-20T15:35:34.336Z,101882.48
2018-12-20T15:38:24.942Z,101889.49
2018-12-20T15:41:14.973Z,101884.75
2018-12-20T15:44:04.935Z,101886.15
2018-12-20T15:46:55.814Z,101892.39
2018-12-20T15:49:45.636Z,101890.95
2018-12-20T15:52:35.508Z,101891.86
2018-12-20T15:55:25.362Z,101891.19
2018-12-20T15:58:15.234Z,101893.46
2018-12-20T16:01:05.082Z,101889.63
2018-12-20T16:03:55.119Z,101892.27
2018-12-20T16:06:45.109Z,101884.69
2018-12-20T16:09:35.732Z,101896.55
2018-12-20T16:12:27.282Z,101898.03
2018-12-20T16:15:17.743Z,101904.23
2018-12-20T16:18:08.654Z,101904.20
2018-12-20T16:20:59.486Z,101901.78
2018-12-20T16:23:49.204Z,101900.45
2018-12-20T16:26:39.503Z,101906.16
2018-12-20T16:29:30.321Z,101901.48
2018-12-20T16:32:20.267Z,101908.44
2018-12-20T16:35:10.203Z,101904.73
2018-12-20T16:38:00.411Z,101905.88
2018-12-20T16:40:50.348Z,101905.06
2018-12-20T16:43:40.290Z,101912.17
2018-12-20T16:46:30.411Z,101906.45
2018-12-20T16:49:20.968Z,101901.81
2018-12-20T16:52:10.887Z,101905.28
2018-12-20T16:55:00.730Z,101911.42
2018-12-20T16:57:51.581Z,101919.41
2018-12-20T17:00:42.324Z,101916.81
2018-12-20T17:03:33.017Z,101909.67
2018-12-20T17:06:23.029Z,101919.05
2018-12-20T17:09:12.931Z,101925.20
2018-12-20T17:12:03.088Z,101922.17
2018-12-20T17:14:53.752Z,101925.39
2018-12-20T17:17:44.817Z,101921.91
2018-12-20T17:20:35.618Z,101924.16
2018-12-20T17:23:26.384Z,101928.83
2018-12-20T17:26:16.283Z,101932.80
2018-12-20T17:29:06.907Z,101924.74
2018-12-20T17:31:56.654Z,101916.45
2018-12-20T17:34:46.553Z,101923.80
2018-12-20T17:37:37.325Z,101922.77
2018-12-20T17:40:28.899Z,101916.42
2018-12-20T17:43:19.103Z,101909.67
2018-12-20T17:46:09.128Z,101913.89
2018-12-20T17:48:59.858Z,101907.17
2018-12-20T17:51:49.638Z,101910.12
2018-12-20T17:54:39.566Z,101902.52
2018-12-20T17:57:29.535Z,101907.20
2018-12-20T18:00:19.350Z,101907.03
2018-12-20T18:03:09.280Z,101905.34
2018-12-20T18:06:00.050Z,101900.95
2018-12-20T18:08:50.141Z,101896.38
2018-12-20T18:11:40.051Z,101897.78
2018-12-20T18:14:30.737Z,101908.44
2018-12-20T18:17:20.644Z,101913.53
2018-12-20T18:20:11.638Z,101917.85
2018-12-20T18:23:02.596Z,101919.47
2018-12-20T18:25:53.505Z,101920.28
2018-12-20T18:28:43.354Z,101916.61
2018-12-20T18:31:34.310Z,101912.97
2018-12-20T18:34:24.395Z,101914.83
2018-12-20T18:37:15.387Z,101911.77
2018-12-20T18:40:07.587Z,101915.09
2018-12-20T18:42:58.279Z,101919.09
2018-12-20T18:45:48.999Z,101925.13
2018-12-20T18:48:38.869Z,101930.42
2018-12-20T18:51:28.746Z,101927.76
2018-12-20T18:54:18.685Z,101924.45
2018-12-20T18:57:09.337Z,101921.46
2018-12-20T18:59:59.487Z,101926.06
2018-12-20T19:02:50.339Z,101933.61
2018-12-20T19:05:40.879Z,101931.53
2018-12-20T19:08:31.202Z,101931.17
2018-12-20T19:11:22.806Z,101926.14
2018-12-20T19:14:12.735Z,101923.18
2018-12-20T19:17:02.670Z,101925.26
2018-12-20T19:19:56.368Z,101936.14
2018-12-20T19:22:45.130Z,101935.07
2018-12-20T19:25:36.083Z,101925.84
2018-12-20T19:28:27.067Z,101917.47
2018-12-20T19:31:17.572Z,101918.66
2018-12-20T19:34:07.587Z,101921.39
2018-12-20T19:36:58.312Z,101928.19
2018-12-20T19:39:52.199Z,101928.25
2018-12-20T19:42:42.143Z,101935.07
2018-12-20T19:45:32.268Z,101936.66
2018-12-20T19:48:22.954Z,101929.61
2018-12-20T19:51:12.986Z,101934.81
2018-12-20T19:54:03.801Z,101938.73
2018-12-20T19:56:54.917Z,101938.34
2018-12-20T19:59:45.803Z,101944.20
2018-12-20T20:02:36.612Z,101943.61
2018-12-20T20:05:26.572Z,101943.41
2018-12-20T20:08:17.421Z,101936.69
2018-12-20T20:11:08.191Z,101941.91
2018-12-20T20:13:58.175Z,101941.78
2018-12-20T20:16:50.977Z,101943.70
2018-12-20T20:19:41.806Z,101953.91
2018-12-20T20:22:32.471Z,101954.62
2018-12-20T20:25:22.435Z,101960.56
2018-12-20T20:28:13.242Z,101957.75
2018-12-20T20:31:03.564Z,101959.20
2018-12-20T20:33:54.076Z,101952.32
2018-12-20T20:36:44.876Z,101955.96
2018-12-20T20:39:35.515Z,101960.20
2018-12-20T20:42:25.238Z,101960.86
2018-12-20T20:45:15.193Z,101962.97
2018-12-20T20:48:05.054Z,101955.31
2018-12-20T20:50:54.967Z,101958.85
2018-12-20T20:53:44.781Z,101956.25
2018-12-20T20:56:34.741Z,101950.80
2018-12-20T20:59:25.699Z,101958.13
2018-12-20T21:02:15.432Z,101950.14
2018-12-20T21:05:05.479Z,101950.73
2018-12-20T21:07:55.170Z,101951.63
2018-12-20T21:10:45.041Z,101953.09
2018-12-20T21:13:34.837Z,101945.63
2018-12-20T21:16:24.717Z,101954.30
2018-12-20T21:19:14.573Z,101950.52
2018-12-20T21:22:04.973Z,101954.84
2018-12-20T21:24:55.363Z,101944.58
2018-12-20T21:27:45.664Z,101953.80
2018-12-20T21:30:35.332Z,101952.61
2018-12-20T21:33:25.421Z,101947.56
2018-12-20T21:36:15.014Z,101953.09
2018-12-20T21:39:05.985Z,101944.91
2018-12-20T21:41:56.696Z,101942.63
2018-12-20T21:44:46.779Z,101936.59
2018-12-20T21:47:37.542Z,101941.84
2018-12-20T21:50:27.381Z,101934.72
2018-12-20T21:53:17.342Z,101938.69
2018-12-20T21:56:08.171Z,101937.49
2018-12-20T21:58:58.144Z,101921.09
2018-12-20T22:01:48.979Z,101921.77
2018-12-20T22:04:38.910Z,101924.38
2018-12-20T22:07:29.656Z,101921.27
2018-12-20T22:10:20.448Z,101915.13
2018-12-20T22:13:11.147Z,101914.02
2018-12-20T22:16:01.397Z,101906.27
2018-12-20T22:18:52.169Z,101914.05
2018-12-20T22:21:42.841Z,101907.81
2018-12-20T22:24:32.871Z,101909.75
2018-12-20T22:27:22.630Z,101909.68
2018-12-20T22:30:12.596Z,101904.20
2018-12-20T22:33:03.354Z,101915.36
2018-12-20T22:35:53.587Z,101914.03
2018-12-20T22:38:43.856Z,101898.70
2018-12-20T22:41:34.843Z,101903.75
2018-12-20T22:44:24.893Z,101911.16
2018-12-20T22:47:14.849Z,101914.63
2018-12-20T22:50:06.013Z,101915.36
2018-12-20T22:52:56.922Z,101920.86
2018-12-20T22:55:46.758Z,101917.02
2018-12-20T22:58:36.697Z,101928.27
2018-12-20T23:01:26.469Z,101925.15
2018-12-20T23:04:16.384Z,101916.20
2018-12-20T23:07:06.242Z,101917.15
2018-12-20T23:09:56.235Z,101926.62
2018-12-20T23:12:46.137Z,101931.02
2018-12-20T23:15:36.931Z,101927.54
2018-12-20T23:18:26.729Z,101931.69
2018-12-20T23:21:16.494Z,101939.97
2018-12-20T23:24:06.413Z,101945.36
2018-12-20T23:26:56.353Z,101945.42
2018-12-20T23:29:47.590Z,101950.62
2018-12-20T23:32:38.083Z,101954.75
2018-12-20T23:35:27.882Z,101954.69
2018-12-20T23:38:17.854Z,101949.81
2018-12-20T23:41:07.727Z,101949.81
2018-12-20T23:43:58.042Z,101951.30
2018-12-20T23:46:48.719Z,101951.16
2018-12-20T23:49:39.363Z,101947.02
2018-12-20T23:52:29.207Z,101946.62
2018-12-20T23:55:19.995Z,101947.42
2018-12-20T23:58:09.744Z,101947.36
